Time;durP1;ratioP1;P1;durP2;ratioP2;P2;SDS_P1;SDS_P2;PMS_P1;PMS_P2;Temp;Humidity;BMP_temperature;BMP_pressure;BME280_temperature;BME280_humidity;BME280_pressure;Samples;Min_cycle;Max_cycle;Signal;HPM_P1;HPM_P2
2022/10/24 00:00:57;;;;;;;4.93;1.70;;;20.90;79.60;;;21.25;45.51;98288.72;4961594;28;123285;-77
2022/10/24 00:03:24;;;;;;;3.20;1.80;;;20.80;79.50;;;21.23;45.60;98296.78;4961182;28;114335;-76
2022/10/24 00:05:50;;;;;;;2.83;1.67;;;20.80;79.60;;;21.21;45.68;98287.94;4960468;28;113627;-75
2022/10/24 00:08:17;;;;;;;3.83;1.53;;;20.80;79.60;;;21.19;45.48;98286.31;4958358;28;124176;-76
2022/10/24 00:10:46;;;;;;;5.07;1.33;;;20.80;79.70;;;21.18;45.64;98281.91;4953569;28;123939;-74
2022/10/24 00:13:14;;;;;;;5.60;1.20;;;20.80;79.80;;;21.17;45.68;98285.91;4963587;28;114538;-75
2022/10/24 00:15:47;;;;;;;4.30;1.50;;;20.80;79.80;;;21.17;45.86;98285.91;4965088;28;113852;-75
2022/10/24 00:18:14;;;;;;;2.80;1.40;;;20.80;80.00;;;21.16;46.02;98289.91;4961255;28;124253;-75
2022/10/24 00:20:42;;;;;;;5.13;1.50;;;20.80;80.00;;;21.14;45.92;98303.56;4959577;28;123843;-74
2022/10/24 00:23:08;;;;;;;3.20;1.70;;;20.70;79.90;;;21.13;45.85;98290.69;4965587;28;114950;-74
2022/10/24 00:25:35;;;;;;;3.10;1.43;;;20.70;80.00;;;21.13;46.15;98296.31;4955697;28;114428;-75
2022/10/24 00:28:02;;;;;;;3.80;1.40;;;20.70;80.00;;;21.12;45.86;98303.16;4959317;28;124734;-76
2022/10/24 00:30:28;;;;;;;5.53;1.20;;;20.70;80.00;;;21.09;46.30;98306.75;4956456;28;124962;-75
2022/10/24 00:32:56;;;;;;;4.23;1.40;;;20.70;80.10;;;21.08;45.97;98302.31;4958387;28;114314;-73
2022/10/24 00:35:22;;;;;;;5.40;1.57;;;20.70;80.10;;;21.07;45.88;98305.53;4950281;28;114485;-75
2022/10/24 00:37:49;;;;;;;3.73;2.20;;;20.60;80.00;;;21.03;46.35;98311.13;4975882;28;123259;-75
2022/10/24 00:40:18;;;;;;;4.33;1.47;;;20.60;80.10;;;21.02;46.37;98319.97;4955994;28;124670;-74
2022/10/24 00:42:45;;;;;;;3.67;1.40;;;20.60;80.10;;;20.99;46.47;98315.94;4943737;28;115237;-75
2022/10/24 00:45:49;;;;;;;4.00;1.33;;;20.60;80.30;;;20.97;46.15;98309.91;4962608;28;114968;-74
2022/10/24 00:48:34;;;;;;;4.63;1.40;;;20.60;80.20;;;20.92;46.32;98299.84;4967792;28;124192;-74
2022/10/24 00:51:13;;;;;;;8.33;1.63;;;20.10;80.00;;;20.92;46.49;98301.84;4963792;28;124455;-75
2022/10/24 00:53:47;;;;;;;5.20;1.53;;;20.50;80.40;;;20.90;46.43;98315.47;4968049;28;114073;-74
2022/10/24 00:56:18;;;;;;;7.70;1.70;;;20.50;80.50;;;20.89;46.57;98313.88;4961190;28;113243;-74
2022/10/24 00:58:46;;;;;;;3.43;1.60;;;20.50;80.50;;;20.88;46.51;98303.84;4962392;28;124675;-75
2022/10/24 01:01:13;;;;;;;6.07;1.67;;;20.50;80.60;;;20.88;46.52;98315.09;4948907;28;123885;-74
2022/10/24 01:03:40;;;;;;;3.33;1.63;;;20.50;80.60;;;20.88;46.82;98312.28;4954661;28;112353;-76
2022/10/24 01:06:47;;;;;;;4.70;1.37;;;20.50;80.70;;;20.86;46.56;98307.03;4955139;28;113983;-75
2022/10/24 01:09:54;;;;;;;2.83;1.27;;;20.50;80.70;;;20.83;46.78;98315.44;4951887;28;124586;-76
2022/10/24 01:12:44;;;;;;;3.17;1.27;;;20.50;80.90;;;20.84;46.83;98319.84;4962561;28;125198;-74
2022/10/24 01:15:37;;;;;;;3.33;1.67;;;20.50;81.00;;;20.80;47.13;98319.84;4943091;28;113618;-74
2022/10/24 01:18:46;;;;;;;2.10;1.20;;;20.40;80.90;;;20.79;46.91;98321.03;4960522;28;113271;-74
2022/10/24 01:21:36;;;;;;;4.60;1.40;;;20.40;80.90;;;20.76;47.13;98319.00;4961502;28;124276;-75
2022/10/24 01:25:06;;;;;;;8.67;1.50;;;20.40;81.10;;;20.73;46.85;98320.59;4940634;28;122723;-74
2022/10/24 01:27:43;;;;;;;3.50;1.67;;;20.30;81.00;;;20.73;47.06;98329.03;4953248;28;114065;-75
2022/10/24 01:30:14;;;;;;;3.30;1.83;;;20.30;81.20;;;20.74;47.07;98324.25;4962588;28;113863;-74
2022/10/24 01:32:54;;;;;;;6.40;1.87;;;20.30;81.20;;;20.72;46.81;98321.81;4962728;28;123791;-74
2022/10/24 01:35:35;;;;;;;3.17;1.80;;;20.30;81.20;;;20.72;47.16;98324.63;4963229;28;124107;-74
2022/10/24 01:38:10;;;;;;;8.93;2.30;;;20.30;81.30;;;20.72;47.10;98324.63;4947709;28;115597;-74
2022/10/24 01:40:54;;;;;;;3.90;1.33;;;20.30;81.40;;;20.70;47.23;98321.38;4959676;28;114539;-77
2022/10/24 01:43:27;;;;;;;8.83;1.90;;;20.30;81.40;;;20.69;47.06;98319.78;4966624;28;124278;-74
2022/10/24 01:46:12;;;;;;;5.77;2.00;;;20.20;81.40;;;20.67;47.56;98310.94;4964836;28;122882;-76
2022/10/24 01:48:44;;;;;;;11.23;1.90;;;20.30;81.60;;;20.68;47.27;98322.97;4962174;28;114216;-78
2022/10/24 01:51:14;;;;;;;7.87;1.47;;;20.20;81.70;;;20.69;47.33;98327.41;4945420;28;113931;-76
2022/10/24 01:53:43;;;;;;;3.03;1.50;;;20.30;81.90;;;20.71;47.53;98327.81;4960134;28;124356;-74
2022/10/24 01:56:09;;;;;;;5.40;1.67;;;20.30;81.90;;;20.71;47.46;98334.25;4946576;28;124066;-74
2022/10/24 01:58:36;;;;;;;10.20;1.93;;;20.30;81.90;;;20.72;47.51;98321.81;4950389;28;114354;-74
2022/10/24 02:01:11;;;;;;;4.60;1.50;;;20.30;81.90;;;20.74;47.44;98322.22;4954981;28;114089;-76
2022/10/24 02:03:47;;;;;;;3.07;1.53;;;20.30;82.00;;;20.73;47.44;98314.97;4962184;28;124146;-75
2022/10/24 02:06:25;;;;;;;3.63;1.77;;;20.30;82.00;;;20.74;47.45;98327.03;4967381;28;124247;-75
2022/10/24 02:09:00;;;;;;;5.03;1.43;;;20.30;82.70;;;20.74;47.59;98330.66;4964642;28;114303;-77
2022/10/24 02:11:27;;;;;;;2.80;1.67;;;20.30;82.10;;;20.75;47.81;98339.88;4963046;28;114038;-75
2022/10/24 02:14:04;;;;;;;3.60;1.40;;;20.30;82.10;;;20.77;47.39;98345.09;4955054;28;124118;-74
2022/10/24 02:16:32;;;;;;;3.43;1.50;;;20.30;82.10;;;20.77;47.36;98342.28;4963958;28;124720;-75
2022/10/24 02:18:59;;;;;;;4.23;1.73;;;20.30;82.20;;;20.76;47.62;98343.47;4956795;28;114120;-76
2022/10/24 02:21:53;;;;;;;3.90;1.37;;;20.30;82.20;;;20.74;47.80;98330.66;4944553;28;113206;-75
2022/10/24 02:24:28;;;;;;;5.20;1.70;;;20.30;82.20;;;20.73;47.90;98331.81;4967003;28;124145;-74
2022/10/24 02:27:22;;;;;;;4.60;2.03;;;20.30;82.20;;;20.72;47.57;98329.44;4949549;28;123005;-75
2022/10/24 02:29:58;;;;;;;3.90;2.20;;;20.30;82.30;;;20.70;47.65;98326.19;4962786;28;116171;-74
2022/10/24 02:32:33;;;;;;;2.90;1.50;;;20.20;82.30;;;20.69;47.72;98321.78;4953137;28;114526;-74
2022/10/24 02:35:02;;;;;;;8.23;2.07;;;20.20;82.40;;;20.66;47.65;98314.13;4967409;28;123811;-74
2022/10/24 02:37:31;;;;;;;4.77;1.77;;;20.20;82.60;;;20.63;48.35;98304.53;4957895;28;123621;-74
2022/10/24 02:39:59;;;;;;;3.43;1.47;;;19.20;81.70;;;20.63;47.93;98303.69;4964662;28;114135;-74
2022/10/24 02:42:28;;;;;;;6.53;1.90;;;20.20;82.80;;;20.60;48.10;98299.66;4965080;28;114259;-75
2022/10/24 02:44:56;;;;;;;4.33;1.80;;;20.20;82.80;;;20.60;48.15;98285.63;4962182;28;124325;-77
2022/10/24 02:47:25;;;;;;;7.03;2.33;;;20.20;83.00;;;20.59;48.30;98286.84;4969472;28;123313;-78
2022/10/24 02:49:52;;;;;;;12.33;2.00;;;20.10;83.00;;;20.57;48.43;98283.59;4961358;28;114233;-76
2022/10/24 02:52:20;;;;;;;7.13;1.70;;;20.10;83.10;;;20.56;48.39;98284.03;4948084;28;114717;-76
2022/10/24 02:54:46;;;;;;;7.87;2.27;;;20.10;83.30;;;20.55;48.46;98290.81;4938531;28;124006;-77
2022/10/24 02:57:14;;;;;;;4.37;1.77;;;20.10;83.40;;;20.54;48.80;98283.59;4950299;28;123953;-75
2022/10/24 02:59:40;;;;;;;6.80;2.10;;;20.10;83.50;;;20.51;48.99;98271.13;4958121;28;113790;-75
2022/10/24 03:02:07;;;;;;;8.47;1.83;;;20.10;83.60;;;20.48;49.07;98292.34;4969266;28;114047;-75
2022/10/24 03:04:33;;;;;;;8.00;1.70;;;20.10;83.90;;;20.47;49.37;98295.53;4964210;28;124016;-74
2022/10/24 03:07:00;;;;;;;7.17;2.13;;;20.00;83.90;;;20.45;49.41;98293.13;4967267;28;123821;-74
2022/10/24 03:09:26;;;;;;;6.87;2.20;;;20.00;84.10;;;20.42;49.23;98293.13;4964241;28;114053;-76
2022/10/24 03:11:53;;;;;;;6.43;1.73;;;20.00;84.30;;;20.40;49.85;98287.09;4969720;28;113155;-75
2022/10/24 03:14:19;;;;;;;4.77;1.70;;;19.90;84.60;;;20.35;49.92;98304.28;4961022;28;124212;-77
2022/10/24 03:16:46;;;;;;;5.80;1.73;;;19.90;84.80;;;20.30;50.03;98297.84;4965622;28;123901;-74
2022/10/24 03:19:12;;;;;;;3.40;1.87;;;19.80;84.90;;;20.24;50.07;98299.41;4960763;28;115896;-76
2022/10/24 03:21:39;;;;;;;8.20;2.50;;;19.80;85.00;;;20.20;50.17;98303.38;4962829;28;115033;-76
2022/10/24 03:24:06;;;;;;;14.80;2.60;;;19.80;85.30;;;20.13;50.35;98292.91;4966144;28;123770;-75
2022/10/24 03:26:33;;;;;;;7.03;2.30;;;19.80;85.50;;;20.13;50.79;98304.13;4970315;28;123843;-74
2022/10/24 03:28:59;;;;;;;4.97;1.87;;;19.70;85.60;;;20.09;50.85;98308.91;4967244;28;114349;-74
2022/10/24 03:31:26;;;;;;;6.47;2.37;;;19.70;85.90;;;20.07;51.20;98311.31;4968149;28;114046;-75
2022/10/24 03:33:52;;;;;;;5.07;1.80;;;19.60;86.00;;;20.04;51.15;98317.66;4965100;28;124124;-76
2022/10/24 03:36:19;;;;;;;7.20;2.23;;;19.60;86.30;;;20.01;51.39;98312.84;4969231;28;123215;-75
2022/10/24 03:38:45;;;;;;;9.30;2.80;;;19.60;87.30;;;20.01;51.66;98315.63;4965896;28;114238;-74
2022/10/24 03:41:12;;;;;;;7.17;2.57;;;19.60;86.90;;;20.02;51.76;98309.66;4968477;28;114027;-77
2022/10/24 03:43:38;;;;;;;12.73;2.23;;;19.60;87.10;;;20.05;51.78;98314.47;4958939;28;124336;-74
2022/10/24 03:46:05;;;;;;;6.80;2.40;;;19.60;87.10;;;20.08;51.88;98307.28;4965354;28;123273;-75
2022/10/24 03:48:32;;;;;;;6.33;2.63;;;19.70;87.90;;;20.11;51.60;98294.50;4961972;28;114215;-77
2022/10/24 03:50:58;;;;;;;4.20;2.23;;;19.70;87.30;;;20.11;51.74;98297.28;4967795;28;113887;-73
2022/10/24 03:53:25;;;;;;;5.17;2.03;;;19.70;87.40;;;20.12;51.57;98296.88;4965665;28;124217;-75
2022/10/24 03:55:51;;;;;;;9.00;3.07;;;19.70;87.50;;;20.14;51.99;98302.94;4957893;28;123690;-74
2022/10/24 03:58:18;;;;;;;8.90;2.47;;;19.70;87.60;;;20.16;52.05;98308.16;4968043;28;114372;-74
2022/10/24 04:00:44;;;;;;;8.10;2.93;;;19.70;87.90;;;20.15;51.99;98304.56;4965383;28;114017;-74
2022/10/24 04:03:10;;;;;;;6.07;2.30;;;19.70;88.10;;;20.14;52.42;98304.94;4958578;28;124723;-74
2022/10/24 04:05:38;;;;;;;9.90;1.90;;;19.70;88.40;;;20.11;52.38;98303.72;4951503;28;123834;-76
2022/10/24 04:08:06;;;;;;;9.20;2.47;;;19.60;88.50;;;20.10;52.50;98313.31;4965229;28;115703;-75
2022/10/24 04:10:32;;;;;;;9.23;3.27;;;19.70;88.70;;;20.08;52.71;98313.69;4964614;28;114921;-72
2022/10/24 04:12:59;;;;;;;7.10;2.57;;;19.60;89.00;;;20.04;52.95;98324.09;4958739;28;124624;-73
2022/10/24 04:15:25;;;;;;;6.20;2.13;;;19.60;89.20;;;20.02;52.98;98314.47;4960472;28;123788;-75
2022/10/24 04:17:52;;;;;;;11.80;3.23;;;19.50;89.30;;;19.98;53.16;98319.22;4965259;28;113935;-75
2022/10/24 04:20:21;;;;;;;7.10;2.33;;;19.60;89.50;;;19.95;53.52;98320.00;4950313;28;112676;-75
2022/10/24 04:22:48;;;;;;;5.57;1.70;;;19.50;89.60;;;19.94;53.27;98324.00;4956771;28;124075;-74
2022/10/24 04:25:15;;;;;;;5.10;2.40;;;19.50;89.70;;;19.91;53.60;98319.97;4951810;28;123350;-78
2022/10/24 04:27:42;;;;;;;6.10;3.00;;;19.50;89.90;;;19.88;53.75;98322.72;4960315;28;113494;-76
2022/10/24 04:30:11;;;;;;;7.70;2.63;;;19.50;90.00;;;19.84;53.87;98308.69;4955968;28;114590;-77
2022/10/24 04:32:38;;;;;;;10.53;2.60;;;19.40;90.00;;;19.82;53.89;98305.44;4955572;28;124121;-76
2022/10/24 04:35:05;;;;;;;8.23;2.50;;;19.40;90.10;;;19.80;53.76;98302.22;4966775;28;123153;-76
2022/10/24 04:37:32;;;;;;;7.33;2.47;;;19.40;90.20;;;19.77;53.97;98287.00;4957866;28;114250;-76
2022/10/24 04:39:58;;;;;;;7.50;2.90;;;19.40;90.20;;;19.77;54.06;98286.19;4963267;28;114433;-75
2022/10/24 04:42:25;;;;;;;10.57;2.63;;;19.40;90.30;;;19.76;54.58;98293.78;4960642;28;124128;-75
2022/10/24 04:44:52;;;;;;;7.27;2.10;;;19.30;90.20;;;19.74;54.15;98296.16;4957974;28;124374;-74
2022/10/24 04:47:19;;;;;;;6.00;2.53;;;19.30;90.30;;;19.74;54.19;98303.78;4985412;28;113502;-75
2022/10/24 04:49:48;;;;;;;8.20;3.33;;;19.30;90.40;;;19.71;54.47;98301.75;4965440;28;113361;-75
2022/10/24 04:52:15;;;;;;;4.30;1.57;;;19.30;90.40;;;19.69;54.39;98304.13;4949687;28;124081;-73
2022/10/24 04:54:41;;;;;;;5.77;2.33;;;19.20;90.50;;;19.67;54.36;98315.75;4958672;28;123622;-74
2022/10/24 04:57:08;;;;;;;7.30;2.60;;;19.20;90.50;;;19.66;54.62;98314.09;4966826;28;115058;-73
2022/10/24 04:59:34;;;;;;;11.07;2.93;;;19.20;90.50;;;19.65;54.28;98306.88;4963508;28;114851;-74
2022/10/24 05:02:01;;;;;;;7.03;2.43;;;19.20;90.50;;;19.62;54.49;98313.25;4954902;28;124115;-74
2022/10/24 05:04:27;;;;;;;5.83;2.30;;;19.20;90.60;;;19.60;54.46;98315.63;4945893;28;123193;-75
2022/10/24 05:06:54;;;;;;;6.80;2.57;;;19.20;90.60;;;19.61;54.42;98323.66;4948357;28;114272;-74
2022/10/24 05:09:20;;;;;;;8.30;1.97;;;19.20;90.60;;;19.61;54.72;98309.66;4964760;28;113099;-74
2022/10/24 05:11:47;;;;;;;10.30;2.20;;;21.00;91.40;;;19.61;54.44;98312.44;4953026;28;124571;-75
2022/10/24 05:14:13;;;;;;;9.93;2.50;;;19.20;90.60;;;19.62;54.58;98318.84;4952707;28;123984;-75
2022/10/24 05:16:40;;;;;;;9.20;2.83;;;19.20;90.60;;;19.64;54.30;98316.47;4954112;28;114030;-75
2022/10/24 05:19:06;;;;;;;5.93;2.13;;;19.20;90.60;;;19.62;54.35;98319.66;4953341;28;113800;-75
2022/10/24 05:21:33;;;;;;;14.57;2.13;;;19.20;90.60;;;19.64;54.56;98313.69;4964946;28;124362;-76
2022/10/24 05:23:59;;;;;;;9.20;2.20;;;19.20;90.60;;;;;;4964886;28;123903;-74
2022/10/24 05:26:25;;;;;;;4.10;2.43;;;19.20;90.60;;;19.62;54.63;98316.84;4967167;28;114267;-75
2022/10/24 05:28:52;;;;;;;6.60;2.47;;;19.20;90.60;;;19.62;54.37;98316.06;4965476;28;114083;-75
2022/10/24 05:31:18;;;;;;;7.37;2.27;;;19.20;90.50;;;19.61;54.18;98328.44;4958524;28;124684;-75
2022/10/24 05:33:45;;;;;;;5.33;2.30;;;19.20;90.50;;;19.60;53.96;98318.44;4964659;28;124424;-74
2022/10/24 05:36:11;;;;;;;5.43;1.70;;;19.10;90.40;;;19.61;53.90;98328.44;4955099;28;113687;-75
2022/10/24 05:38:38;;;;;;;6.63;2.00;;;19.20;90.40;;;19.62;54.03;98319.66;4962787;28;114367;-74
2022/10/24 05:41:04;;;;;;;4.30;1.90;;;19.20;90.40;;;;;;4971163;28;123404;-74
2022/10/24 05:43:31;;;;;;;10.00;1.80;;;19.20;90.50;;;19.64;54.34;98334.09;4969659;28;123976;-76
2022/10/24 05:45:57;;;;;;;6.70;2.40;;;19.20;90.50;;;19.66;54.22;98330.94;4963131;28;115216;-74
2022/10/24 05:48:24;;;;;;;4.60;2.53;;;19.20;90.50;;;19.67;54.23;98328.94;4968351;28;115136;-76
2022/10/24 05:50:58;;;;;;;6.80;2.20;;;19.20;90.60;;;19.67;54.17;98321.34;4965883;28;124006;-75
2022/10/24 05:53:26;;;;;;;5.07;2.03;;;19.20;90.60;;;19.70;54.39;98330.97;4968828;28;123724;-74
2022/10/24 05:55:52;;;;;;;5.10;2.00;;;19.20;90.60;;;19.71;54.28;98338.19;4959272;28;114657;-74
2022/10/24 05:58:21;;;;;;;9.90;2.60;;;19.20;90.60;;;19.70;54.51;98328.97;4959933;28;114007;-75
2022/10/24 06:00:49;;;;;;;5.57;2.30;;;19.20;90.60;;;19.71;54.31;98339.00;4959723;28;124638;-75
2022/10/24 06:03:15;;;;;;;5.13;2.00;;;19.30;90.70;;;19.72;54.26;98363.03;4952341;28;122948;-76
2022/10/24 06:05:42;;;;;;;8.40;2.23;;;19.30;90.70;;;19.72;54.80;98359.41;4963609;28;113395;-76
2022/10/24 06:08:12;;;;;;;8.60;2.20;;;19.30;90.90;;;19.68;55.93;98370.59;4959160;28;114134;-75
2022/10/24 06:10:39;;;;;;;7.30;2.70;;;19.30;91.50;;;19.61;56.93;98384.50;4940091;28;123284;-76
2022/10/24 06:13:06;;;;;;;8.57;3.10;;;19.20;92.00;;;19.49;57.20;98349.13;4958530;28;124907;-75
2022/10/24 06:15:32;;;;;;;6.47;2.23;;;19.10;92.20;;;19.32;58.20;98361.75;4957746;28;114183;-75
2022/10/24 06:17:59;;;;;;;7.83;2.33;;;19.00;92.50;;;19.19;58.46;98388.41;4962615;28;113916;-76
2022/10/24 06:20:26;;;;;;;17.33;4.53;;;18.90;92.70;;;19.10;59.11;98399.06;4960013;28;123885;-77
2022/10/24 06:22:52;;;;;;;5.17;2.30;;;18.80;92.90;;;19.01;59.87;98396.53;4951703;28;123724;-75
2022/10/24 06:25:19;;;;;;;11.23;3.33;;;18.70;93.20;;;18.94;59.77;98394.47;4959488;28;114242;-76
2022/10/24 06:27:47;;;;;;;9.90;2.53;;;18.70;93.40;;;18.89;60.28;98378.00;4958834;28;113089;-75
2022/10/24 06:30:14;;;;;;;8.57;2.13;;;18.60;93.50;;;18.88;60.43;98384.75;4956405;28;124716;-76
2022/10/24 06:32:41;;;;;;;4.40;2.53;;;18.60;93.60;;;18.91;60.50;98386.84;4961158;28;125476;-75
2022/10/24 06:35:10;;;;;;;3.70;1.90;;;18.60;93.90;;;18.93;60.61;98378.03;4957099;28;115322;-75
2022/10/24 06:37:37;;;;;;;6.40;2.10;;;18.60;94.10;;;18.94;60.71;98377.66;4957891;28;115838;-76
2022/10/24 06:40:04;;;;;;;6.07;2.30;;;18.50;94.20;;;18.93;60.83;98384.44;4955171;28;124146;-75
2022/10/24 06:42:30;;;;;;;4.53;2.27;;;18.50;94.30;;;18.92;60.86;98394.03;4962744;28;123476;-75
2022/10/24 06:44:57;;;;;;;6.37;1.90;;;18.50;94.30;;;18.89;60.99;98392.00;4947598;28;113955;-81
2022/10/24 06:47:23;;;;;;;6.63;2.63;;;18.50;94.40;;;18.90;60.77;98393.59;4958336;28;114198;-78
2022/10/24 06:49:50;;;;;;;4.80;2.63;;;18.50;94.50;;;18.91;61.21;98397.19;4963478;28;123843;-78
2022/10/24 06:52:16;;;;;;;4.93;2.30;;;18.50;94.60;;;18.92;61.31;98398.84;4948332;28;123420;-77
2022/10/24 06:54:43;;;;;;;4.50;2.00;;;18.50;94.70;;;18.93;61.18;98406.03;4958126;28;114131;-78
2022/10/24 06:57:09;;;;;;;6.80;2.30;;;18.50;94.80;;;18.94;61.32;98407.63;4960003;28;114296;-81
2022/10/24 06:59:36;;;;;;;6.63;2.37;;;18.50;94.90;;;18.96;61.54;98411.69;4950737;28;124007;-77
2022/10/24 07:02:02;;;;;;;8.27;2.17;;;18.50;95.00;;;19.00;61.77;98427.75;4959086;28;124571;-77
2022/10/24 07:04:30;;;;;;;5.43;2.53;;;18.50;95.10;;;18.99;62.16;98449.31;4958567;28;114689;-77
2022/10/24 07:06:57;;;;;;;7.00;2.03;;;18.60;95.30;;;18.98;62.28;98439.31;4961959;28;113702;-77
2022/10/24 07:09:23;;;;;;;8.73;2.57;;;18.60;95.50;;;18.93;62.44;98446.03;4958245;28;124459;-79
2022/10/24 07:11:50;;;;;;;6.33;2.40;;;18.50;95.50;;;18.86;62.41;98431.94;4963883;28;125330;-78
2022/10/24 07:14:16;;;;;;;6.43;3.03;;;18.50;95.60;;;18.80;62.52;98413.84;4958886;28;114407;-77
2022/10/24 07:16:44;;;;;;;8.90;2.70;;;18.40;95.70;;;18.81;62.82;98437.06;4958534;28;112953;-77
2022/10/24 07:19:10;;;;;;;3.63;2.07;;;18.40;95.80;;;18.82;62.76;98445.06;4962866;28;123885;-78
2022/10/24 07:21:37;;;;;;;6.80;2.33;;;18.40;95.90;;;18.84;63.36;98445.50;4958530;28;124411;-78
2022/10/24 07:24:04;;;;;;;6.60;2.53;;;18.50;96.00;;;18.87;63.08;98432.75;4964493;28;114900;-77
2022/10/24 07:26:31;;;;;;;6.20;1.97;;;18.50;96.10;;;18.89;63.16;98439.59;4950457;28;115442;-82
2022/10/24 07:29:00;;;;;;;5.63;2.70;;;18.50;96.20;;;18.90;63.31;98437.59;4949169;28;124013;-80
2022/10/24 07:31:31;;;;;;;8.67;2.70;;;18.50;96.30;;;18.89;63.23;98436.78;4948326;28;124353;-80
2022/10/24 07:34:01;;;;;;;6.60;2.67;;;18.40;96.30;;;18.89;63.21;98431.19;4958865;28;115090;-79
2022/10/24 07:36:29;;;;;;;3.87;1.80;;;18.50;96.40;;;18.88;63.10;98432.34;4976047;28;113822;-79
2022/10/24 07:38:57;;;;;;;5.60;2.57;;;18.40;96.50;;;18.90;63.48;98432.00;4954233;28;125555;-79
2022/10/24 07:41:25;;;;;;;4.23;2.10;;;18.40;96.50;;;18.91;63.39;98442.81;4954200;28;124282;-78
2022/10/24 07:43:53;;;;;;;5.87;2.20;;;18.50;96.60;;;18.93;63.56;98436.84;4955571;28;114230;-78
2022/10/24 07:46:21;;;;;;;10.90;3.40;;;18.50;96.70;;;18.94;63.51;98447.66;4959793;28;114308;-77
2022/10/24 07:48:52;;;;;;;4.77;2.77;;;18.50;96.80;;;18.95;63.58;98442.88;4952186;28;124226;-78
2022/10/24 07:51:19;;;;;;;5.73;2.37;;;18.50;96.90;;;18.92;63.42;98438.81;4958563;28;123559;-80
2022/10/24 07:53:47;;;;;;;5.90;2.63;;;18.50;96.90;;;18.92;63.52;98424.81;4957809;28;114653;-79
2022/10/24 07:56:16;;;;;;;5.80;2.00;;;18.70;97.00;;;18.92;63.60;98433.22;4955620;28;113804;-78
2022/10/24 07:58:44;;;;;;;5.40;2.33;;;18.20;96.70;;;18.89;63.66;98461.97;4953520;28;124485;-77
2022/10/24 08:01:23;;;;;;;7.73;2.60;;;18.40;96.90;;;18.85;63.99;98457.50;4944776;28;122777;-78
2022/10/24 08:03:49;;;;;;;7.80;2.30;;;18.40;97.00;;;18.82;63.55;98464.66;4941152;28;113424;-78
2022/10/24 08:06:21;;;;;;;6.70;2.33;;;18.40;97.00;;;18.80;63.74;98464.22;4960933;28;113768;-79
2022/10/24 08:38:22;;;;;;;5.33;2.50;;;18.30;96.50;;;18.77;62.64;98420.19;4843843;28;126728;-79
2022/10/24 08:40:50;;;;;;;4.00;2.03;;;18.30;96.50;;;18.78;62.50;98407.84;4955465;28;124070;-76
2022/10/24 08:43:18;;;;;;;5.70;1.90;;;18.30;96.50;;;18.80;62.57;98408.25;4967812;28;113335;-77
2022/10/24 08:45:57;;;;;;;4.60;1.97;;;18.30;96.50;;;18.81;62.43;98420.25;4948780;28;114040;-78
2022/10/24 08:48:31;;;;;;;5.10;2.13;;;18.30;96.50;;;18.82;62.58;98433.88;4956759;28;123478;-76
2022/10/24 08:51:19;;;;;;;3.20;1.77;;;18.80;96.80;;;18.81;62.66;98426.66;4960262;28;123887;-77
2022/10/24 09:09:08;;;;;;;4.80;2.33;;;18.30;96.70;;;18.74;62.95;98435.75;4950182;28;114658;-79
2022/10/24 09:12:00;;;;;;;3.70;1.70;;;18.30;96.70;;;18.77;62.81;98431.38;4955500;28;114469;-79
2022/10/24 09:14:31;;;;;;;4.93;1.83;;;18.30;96.70;;;18.81;63.09;98434.25;4957760;28;123909;-78
2022/10/24 09:16:59;;;;;;;5.47;1.80;;;18.40;96.80;;;18.83;62.74;98452.28;4959873;28;124204;-78
2022/10/24 09:19:29;;;;;;;3.67;1.97;;;18.40;96.70;;;18.83;62.77;98462.66;4951485;28;115387;-77
2022/10/24 09:21:57;;;;;;;6.50;2.20;;;18.40;96.70;;;18.83;62.88;98468.25;4973022;28;114867;-78
2022/10/24 09:24:44;;;;;;;6.23;1.67;;;18.40;96.70;;;18.84;62.75;98475.50;4967923;28;124845;-78
2022/10/24 09:27:20;;;;;;;3.40;2.13;;;18.40;96.70;;;18.84;62.70;98479.09;4952029;28;123261;-78
2022/10/24 09:29:47;;;;;;;4.77;2.03;;;18.40;96.70;;;18.82;62.82;98475.06;4969096;28;114095;-77
2022/10/24 09:32:21;;;;;;;3.03;1.67;;;18.40;96.70;;;18.81;62.89;98467.84;4969687;28;113955;-77
2022/10/24 09:34:49;;;;;;;6.17;1.97;;;18.30;96.70;;;18.79;62.90;98479.41;4960031;28;124050;-77
2022/10/24 09:37:37;;;;;;;4.40;2.40;;;18.40;96.80;;;18.75;63.04;98475.72;4968525;28;123742;-79
2022/10/24 09:40:17;;;;;;;5.53;2.13;;;18.30;96.80;;;18.74;63.06;98485.28;4965473;28;113550;-78
2022/10/24 09:43:10;;;;;;;6.33;2.17;;;18.30;96.90;;;18.73;63.24;98466.91;4965777;28;113897;-78
2022/10/24 09:45:47;;;;;;;5.20;2.50;;;18.30;96.90;;;18.75;63.27;98470.97;4965620;28;123968;-79
2022/10/24 09:48:31;;;;;;;5.00;2.03;;;18.30;96.90;;;18.76;63.37;98463.38;4961316;28;124425;-80
2022/10/24 09:50:59;;;;;;;6.97;2.00;;;18.30;97.00;;;18.77;63.36;98462.19;4956385;28;114298;-78
2022/10/24 09:53:38;;;;;;;5.30;2.70;;;18.30;97.00;;;18.76;63.20;98468.97;4964964;28;113740;-81
2022/10/24 09:56:13;;;;;;;6.47;2.30;;;18.30;97.00;;;18.76;63.02;98468.97;4964104;28;124348;-80
2022/10/24 09:58:40;;;;;;;5.23;1.70;;;18.30;97.30;;;18.77;63.20;98462.97;4959540;28;124792;-77
2022/10/24 10:01:19;;;;;;;3.70;1.97;;;18.30;97.00;;;18.79;63.31;98457.03;4951145;28;114791;-78
2022/10/24 10:04:04;;;;;;;6.40;2.07;;;18.40;97.00;;;18.80;63.27;98475.41;4950377;28;115131;-78
2022/10/24 10:06:32;;;;;;;5.53;2.30;;;18.40;97.10;;;18.80;63.24;98469.81;4956925;28;125035;-81
2022/10/24 10:08:59;;;;;;;7.77;1.93;;;18.40;97.10;;;18.82;63.29;98463.84;4934678;28;123240;-79
2022/10/24 10:11:32;;;;;;;6.17;2.40;;;18.40;97.10;;;18.82;63.28;98473.06;4953984;28;115273;-78
2022/10/24 10:14:00;;;;;;;7.03;2.63;;;18.40;97.10;;;18.81;63.34;98482.66;4949860;28;115195;-77
2022/10/24 10:16:37;;;;;;;5.93;2.33;;;18.40;97.20;;;18.81;63.37;98470.66;4957464;28;124545;-76
2022/10/24 10:19:17;;;;;;;6.30;2.50;;;18.30;97.20;;;18.79;63.35;98468.22;4950275;28;124380;-78
2022/10/24 10:21:54;;;;;;;3.47;2.03;;;18.30;97.20;;;18.79;63.49;98471.00;4949565;28;114070;-78
2022/10/24 10:24:39;;;;;;;6.50;2.70;;;18.30;97.20;;;18.80;63.38;98464.22;4952525;28;114502;-77
2022/10/24 10:27:29;;;;;;;5.33;2.00;;;18.30;97.20;;;18.83;63.30;98459.88;4964944;28;123560;-79
2022/10/24 10:30:10;;;;;;;7.23;2.40;;;18.40;97.20;;;18.86;63.32;98454.34;4960285;28;124486;-78
2022/10/24 10:33:04;;;;;;;6.20;2.33;;;18.40;97.20;;;18.87;63.17;98453.16;4949049;28;114419;-77
2022/10/24 10:35:59;;;;;;;5.03;1.80;;;18.40;97.10;;;18.89;62.97;98466.78;4950203;28;114175;-80
2022/10/24 10:38:49;;;;;;;4.77;1.80;;;18.40;97.00;;;18.90;62.58;98462.78;4951206;28;124029;-77
2022/10/24 10:41:48;;;;;;;7.50;1.83;;;18.40;96.90;;;18.89;62.65;98456.38;4955235;28;123810;-77
2022/10/24 10:44:47;;;;;;;6.73;1.67;;;18.40;96.80;;;18.92;62.46;98458.44;4962821;28;114907;-78
2022/10/24 10:47:43;;;;;;;5.07;1.90;;;18.50;96.70;;;18.96;61.97;98466.88;4951418;28;113902;-78
2022/10/24 10:50:48;;;;;;;7.93;2.30;;;18.50;96.60;;;18.96;61.83;98476.06;4958356;28;123353;-82
2022/10/24 10:53:49;;;;;;;5.73;1.77;;;18.50;96.40;;;19.00;61.69;98489.34;4945329;28;124738;-78
2022/10/24 10:56:45;;;;;;;2.83;1.90;;;18.50;96.30;;;19.01;61.10;98485.34;4954722;28;114027;-78
2022/10/24 10:59:44;;;;;;;4.33;1.93;;;18.50;96.00;;;19.00;60.80;98492.13;4960273;28;114180;-79
2022/10/24 11:02:54;;;;;;;3.00;1.70;;;18.50;95.80;;;18.98;60.43;98473.72;4950592;28;124538;-78
2022/10/24 11:05:39;;;;;;;4.40;1.57;;;18.50;95.60;;;19.02;60.13;98486.94;4948962;28;124421;-77
2022/10/24 11:09:06;;;;;;;5.50;1.93;;;18.70;95.50;;;18.96;59.78;98498.47;4934214;28;114657;-77
2022/10/24 11:11:48;;;;;;;3.20;1.60;;;18.50;95.20;;;18.97;59.51;98491.69;4957472;28;114977;-78
2022/10/24 11:14:34;;;;;;;2.80;1.60;;;18.50;95.00;;;18.98;59.17;98498.09;4958403;28;124408;-76
2022/10/24 11:17:22;;;;;;;3.27;1.30;;;18.50;94.90;;;18.97;59.26;98483.31;4946078;28;123513;-77
2022/10/24 11:20:21;;;;;;;4.70;1.93;;;18.50;94.80;;;18.96;58.96;98495.66;4947047;28;114751;-76